Time;durP1;ratioP1;P1;durP2;ratioP2;P2;SDS_P1;SDS_P2;PMS_P1;PMS_P2;Temp;Humidity;BMP_temperature;BMP_pressure;BME280_temperature;BME280_humidity;BME280_pressure;Samples;Min_cycle;Max_cycle;Signal;HPM_P1;HPM_P2
2023/05/27 00:00:25;;;;;;;1999.90;999.90;;;22.40;84.80;;;;;;5090963;28;20072;-72
2023/05/27 00:02:52;;;;;;;1999.90;999.90;;;22.50;82.80;;;;;;5092895;28;20048;-72
2023/05/27 00:05:20;;;;;;;1999.90;999.90;;;22.40;83.30;;;;;;5088823;28;20089;-74
2023/05/27 00:07:47;;;;;;;1999.90;999.90;;;22.80;83.80;;;;;;5088971;28;20032;-73
2023/05/27 00:10:14;;;;;;;1999.90;999.90;;;23.00;82.40;;;;;;5088824;28;20032;-72
2023/05/27 00:12:42;;;;;;;1999.90;999.90;;;23.30;82.50;;;;;;5096953;28;20470;-72
2023/05/27 00:15:10;;;;;;;1999.90;999.90;;;24.10;79.90;;;;;;5088152;28;20032;-72
2023/05/27 00:17:39;;;;;;;1999.90;999.90;;;24.50;79.20;;;;;;5089430;28;20188;-72
2023/05/27 00:20:07;;;;;;;1999.90;999.90;;;24.10;79.80;;;;;;5089903;28;20478;-72
2023/05/27 00:22:36;;;;;;;1999.90;999.90;;;23.90;80.80;;;;;;5091612;28;20028;-71
2023/05/27 00:25:04;;;;;;;1999.90;999.90;;;24.00;80.20;;;;;;5086435;28;20027;-72
2023/05/27 00:27:31;;;;;;;1999.90;999.90;;;24.10;79.40;;;;;;5087388;28;20028;-73
2023/05/27 00:29:58;;;;;;;1999.90;999.90;;;24.10;80.30;;;;;;5084753;28;20117;-72
2023/05/27 00:32:26;;;;;;;1999.90;999.90;;;24.20;79.60;;;;;;5090299;28;20535;-72
2023/05/27 00:34:53;;;;;;;1999.90;999.90;;;24.30;80.10;;;;;;5087759;28;20031;-71
2023/05/27 00:37:20;;;;;;;1999.90;999.90;;;24.50;79.20;;;;;;5103570;28;20923;-72
2023/05/27 00:39:48;;;;;;;1999.90;999.90;;;24.30;79.90;;;;;;5084164;28;20032;-72
2023/05/27 00:42:15;;;;;;;1999.90;999.90;;;24.40;79.00;;;;;;5099721;28;20032;-71
2023/05/27 00:44:43;;;;;;;1999.90;999.90;;;24.80;78.80;;;;;;5094369;28;20027;-73
2023/05/27 00:47:11;;;;;;;1999.90;999.90;;;24.80;79.30;;;;;;5093417;28;20031;-73
2023/05/27 00:49:39;;;;;;;1999.90;999.90;;;25.00;78.00;;;;;;5088463;28;20057;-73
2023/05/27 00:52:06;;;;;;;1999.90;999.90;;;25.30;77.50;;;;;;5090148;28;20106;-73
2023/05/27 00:54:34;;;;;;;1999.90;999.90;;;25.30;77.00;;;;;;5095289;28;20031;-71
2023/05/27 00:57:02;;;;;;;1999.90;999.90;;;25.70;77.90;;;;;;5097970;28;20042;-72
2023/05/27 00:59:30;;;;;;;1999.90;999.90;;;26.30;76.80;;;;;;5093052;28;20103;-72
2023/05/27 01:01:57;;;;;;;1999.90;999.90;;;26.10;76.60;;;;;;5094172;28;21801;-72
2023/05/27 01:04:26;;;;;;;1999.90;999.90;;;26.00;77.40;;;;;;5091190;28;20141;-70
2023/05/27 01:07:10;;;;;;;1999.90;999.90;;;26.40;77.00;;;;;;5098465;28;20027;-70
2023/05/27 01:09:52;;;;;;;1999.90;999.90;;;26.50;76.40;;;;;;5091519;28;20048;-70
2023/05/27 01:12:27;;;;;;;1999.90;999.90;;;26.60;77.20;;;;;;5100503;28;20102;-70
2023/05/27 01:14:57;;;;;;;1999.90;999.90;;;27.00;75.80;;;;;;5094718;28;20034;-70
2023/05/27 01:17:27;;;;;;;1999.90;999.90;;;27.30;74.90;;;;;;5091524;28;20044;-70
2023/05/27 01:19:56;;;;;;;1999.90;999.90;;;27.20;74.10;;;;;;5090123;28;20577;-70
2023/05/27 01:22:30;;;;;;;1999.90;999.90;;;27.50;74.70;;;;;;5090435;28;20229;-71
2023/05/27 01:24:58;;;;;;;1999.90;999.90;;;27.40;73.30;;;;;;5093808;28;20019;-70
2023/05/27 01:27:25;;;;;;;1999.90;999.90;;;27.40;73.70;;;;;;5103507;28;20489;-69
2023/05/27 01:29:54;;;;;;;1999.90;999.90;;;27.40;73.80;;;;;;5095883;28;20032;-69
2023/05/27 01:32:55;;;;;;;1999.90;999.90;;;27.40;74.20;;;;;;5097882;28;20104;-69
2023/05/27 01:35:31;;;;;;;1999.90;999.90;;;27.20;74.20;;;;;;5073878;28;20516;-69
2023/05/27 01:38:02;;;;;;;1999.90;999.90;;;27.70;74.20;;;;;;5096996;28;20413;-70
2023/05/27 01:40:30;;;;;;;1999.90;999.90;;;27.60;73.70;;;;;;5097548;28;20028;-70
2023/05/27 01:43:00;;;;;;;1999.90;999.90;;;27.60;72.90;;;;;;5104469;28;20024;-70
2023/05/27 01:45:27;;;;;;;1999.90;999.90;;;27.30;72.60;;;;;;5087889;28;20386;-70
2023/05/27 01:47:54;;;;;;;1999.90;999.90;;;27.50;71.90;;;;;;5090687;28;20482;-70
2023/05/27 01:50:22;;;;;;;1999.90;999.90;;;27.30;73.30;;;;;;5090007;28;20032;-68
2023/05/27 01:52:49;;;;;;;1999.90;999.90;;;27.50;73.60;;;;;;5091850;28;20085;-70
2023/05/27 01:55:17;;;;;;;1999.90;999.90;;;27.70;73.60;;;;;;5092251;28;20057;-70
2023/05/27 01:57:45;;;;;;;1999.90;999.90;;;27.70;73.20;;;;;;5089169;28;20047;-70
2023/05/27 02:00:12;;;;;;;1999.90;999.90;;;27.90;72.70;;;;;;5088451;28;20542;-70
2023/05/27 02:02:41;;;;;;;1999.90;999.90;;;28.10;71.60;;;;;;5093366;28;20052;-70
2023/05/27 02:05:10;;;;;;;1999.90;999.90;;;28.20;71.00;;;;;;5091778;28;20123;-70
2023/05/27 02:07:38;;;;;;;1999.90;999.90;;;28.30;71.00;;;;;;5086130;28;20093;-71
2023/05/27 02:10:06;;;;;;;1999.90;999.90;;;28.40;70.60;;;;;;5085709;28;20505;-70
2023/05/27 02:12:34;;;;;;;1999.90;999.90;;;28.10;70.50;;;;;;5088816;28;20110;-70
2023/05/27 02:15:01;;;;;;;1999.90;999.90;;;28.10;69.80;;;;;;5072118;28;20814;-69
2023/05/27 02:17:29;;;;;;;1999.90;999.90;;;28.00;71.10;;;;;;5090604;28;20039;-70
2023/05/27 02:19:56;;;;;;;1999.90;999.90;;;28.10;69.10;;;;;;5093006;28;20028;-70
2023/05/27 02:22:24;;;;;;;1999.90;999.90;;;28.20;69.40;;;;;;5092607;28;20529;-70
2023/05/27 02:24:51;;;;;;;1999.90;999.90;;;28.30;69.70;;;;;;5095533;28;20043;-70
2023/05/27 02:27:18;;;;;;;1999.90;999.90;;;28.30;67.80;;;;;;5094980;28;20889;-70
2023/05/27 02:29:49;;;;;;;1999.90;999.90;;;28.30;68.70;;;;;;5092199;28;20449;-69
2023/05/27 02:32:16;;;;;;;1999.90;999.90;;;28.00;66.70;;;;;;5101892;28;20031;-69
2023/05/27 02:34:44;;;;;;;1999.90;999.90;;;27.80;67.30;;;;;;5092246;28;20028;-70
2023/05/27 02:37:11;;;;;;;1999.90;999.90;;;27.30;66.70;;;;;;5102971;28;20043;-71
2023/05/27 02:39:40;;;;;;;1999.90;999.90;;;26.50;68.10;;;;;;5090810;28;20028;-70
2023/05/27 02:42:08;;;;;;;1999.90;999.90;;;26.30;69.20;;;;;;5096125;28;20080;-70
2023/05/27 02:44:35;;;;;;;1999.90;999.90;;;26.20;70.00;;;;;;5092780;28;20069;-70
2023/05/27 02:47:02;;;;;;;1999.90;999.90;;;26.10;70.70;;;;;;5092341;28;20478;-70
2023/05/27 02:49:30;;;;;;;1999.90;999.90;;;25.70;71.00;;;;;;5084910;28;20107;-70
2023/05/27 02:51:57;;;;;;;1999.90;999.90;;;25.60;70.40;;;;;;5099774;28;20533;-69
2023/05/27 02:54:24;;;;;;;1999.90;999.90;;;25.40;71.20;;;;;;5084838;28;20032;-70
2023/05/27 02:56:52;;;;;;;1999.90;999.90;;;25.20;70.60;;;;;;5090568;28;20054;-71
2023/05/27 02:59:19;;;;;;;1999.90;999.90;;;24.80;69.80;;;;;;5083338;28;20116;-70
2023/05/27 03:01:47;;;;;;;1999.90;999.90;;;24.60;71.10;;;;;;5087886;28;20048;-70
2023/05/27 03:04:16;;;;;;;1999.90;999.90;;;24.50;71.90;;;;;;5082876;28;20100;-69
2023/05/27 03:06:43;;;;;;;1999.90;999.90;;;24.30;71.80;;;;;;5088626;28;20082;-69
2023/05/27 03:09:11;;;;;;;1999.90;999.90;;;24.20;72.20;;;;;;5087375;28;20028;-69
2023/05/27 03:11:38;;;;;;;1999.90;999.90;;;24.20;72.60;;;;;;5093090;28;20028;-69
2023/05/27 03:14:05;;;;;;;1999.90;999.90;;;24.20;73.40;;;;;;5084156;28;20110;-68
2023/05/27 03:16:34;;;;;;;1999.90;999.90;;;23.90;72.20;;;;;;5088635;28;20049;-68
2023/05/27 03:19:02;;;;;;;1999.90;999.90;;;23.70;72.80;;;;;;5085134;28;20619;-69
2023/05/27 03:21:29;;;;;;;1999.90;999.90;;;23.30;71.30;;;;;;5091371;28;20063;-69
2023/05/27 03:23:57;;;;;;;1999.90;999.90;;;22.90;73.50;;;;;;5096213;28;20032;-70
2023/05/27 03:26:25;;;;;;;1999.90;999.90;;;22.50;73.20;;;;;;5093487;28;20028;-69
2023/05/27 03:28:52;;;;;;;1999.90;999.90;;;22.20;75.10;;;;;;5088764;28;20036;-69
2023/05/27 03:31:19;;;;;;;1999.90;999.90;;;21.80;75.10;;;;;;5098146;28;20028;-69
2023/05/27 03:33:48;;;;;;;1999.90;999.90;;;21.40;76.00;;;;;;5090155;28;20103;-70
2023/05/27 03:36:15;;;;;;;1999.90;999.90;;;21.10;75.30;;;;;;5089130;28;20084;-70
2023/05/27 03:38:43;;;;;;;1999.90;999.90;;;20.90;76.50;;;;;;5085806;28;20082;-70
2023/05/27 03:41:10;;;;;;;1999.90;999.90;;;20.70;76.60;;;;;;5093507;28;20039;-69
2023/05/27 03:43:38;;;;;;;1999.90;999.90;;;20.40;77.70;;;;;;5090749;28;20023;-70
2023/05/27 03:46:06;;;;;;;1999.90;999.90;;;20.10;78.20;;;;;;5099003;28;20032;-70
2023/05/27 03:48:34;;;;;;;1999.90;999.90;;;19.80;77.50;;;;;;5093916;28;20119;-69
2023/05/27 03:51:02;;;;;;;1999.90;999.90;;;19.70;78.30;;;;;;5095349;28;20039;-71
2023/05/27 03:53:29;;;;;;;1999.90;999.90;;;19.40;78.90;;;;;;5100116;28;20035;-69
2023/05/27 03:55:57;;;;;;;1999.90;999.90;;;19.20;78.90;;;;;;5092296;28;20038;-69
2023/05/27 03:58:24;;;;;;;1999.90;999.90;;;19.00;79.80;;;;;;5071401;28;20039;-69
2023/05/27 04:00:51;;;;;;;1999.90;999.90;;;18.90;80.70;;;;;;5088643;28;20032;-70
2023/05/27 04:03:20;;;;;;;1999.90;999.90;;;18.80;81.10;;;;;;5093538;28;20065;-70
2023/05/27 04:05:47;;;;;;;1999.90;999.90;;;18.70;81.30;;;;;;5090138;28;20031;-69
2023/05/27 04:08:15;;;;;;;1999.90;999.90;;;18.70;80.90;;;;;;5098359;28;20040;-71
2023/05/27 04:10:42;;;;;;;1999.90;999.90;;;18.70;80.80;;;;;;5089189;28;20020;-70
2023/05/27 04:13:09;;;;;;;1999.90;999.90;;;18.50;81.90;;;;;;5094018;28;20024;-70
2023/05/27 04:15:38;;;;;;;1999.90;999.90;;;18.40;81.60;;;;;;5090868;28;20118;-69
2023/05/27 04:18:06;;;;;;;1999.90;999.90;;;18.30;81.90;;;;;;5079590;28;20139;-69
2023/05/27 04:20:42;;;;;;;1999.90;999.90;;;18.20;82.70;;;;;;5093557;28;20028;-69
2023/05/27 04:23:10;;;;;;;1999.90;999.90;;;18.00;83.40;;;;;;5096046;28;20028;-68
2023/05/27 04:25:39;;;;;;;1999.90;999.90;;;17.90;83.60;;;;;;5096815;28;20027;-70
2023/05/27 04:28:07;;;;;;;1999.90;999.90;;;17.90;84.00;;;;;;5086212;28;20032;-70
2023/05/27 04:30:35;;;;;;;1999.90;999.90;;;17.80;83.50;;;;;;5091069;28;20558;-69
2023/05/27 04:33:03;;;;;;;1999.90;999.90;;;17.80;85.30;;;;;;5085388;28;20035;-69
2023/05/27 04:35:30;;;;;;;1999.90;999.90;;;17.80;86.80;;;;;;5087112;28;20155;-69
2023/05/27 04:38:01;;;;;;;1999.90;999.90;;;17.60;87.30;;;;;;5101611;28;20156;-70
2023/05/27 04:40:34;;;;;;;1999.90;999.90;;;17.60;88.20;;;;;;5084392;28;20555;-71
2023/05/27 04:43:01;;;;;;;1999.90;999.90;;;17.40;88.40;;;;;;5087494;28;20028;-69
2023/05/27 04:45:29;;;;;;;1999.90;999.90;;;17.40;89.10;;;;;;5080500;28;20382;-69
2023/05/27 04:47:57;;;;;;;1999.90;999.90;;;17.40;89.20;;;;;;5080892;28;20024;-70
2023/05/27 04:50:24;;;;;;;1999.90;999.90;;;17.30;89.60;;;;;;5085343;28;20099;-68
2023/05/27 04:52:52;;;;;;;1999.90;999.90;;;17.20;89.90;;;;;;5087210;28;20460;-69
2023/05/27 04:55:20;;;;;;;1999.90;999.90;;;17.20;89.40;;;;;;5087651;28;20081;-70
2023/05/27 04:57:48;;;;;;;1999.90;999.90;;;17.10;89.30;;;;;;5087160;28;20477;-69
2023/05/27 05:00:18;;;;;;;1999.90;999.90;;;17.00;89.70;;;;;;5068216;28;20089;-69
2023/05/27 05:02:47;;;;;;;1999.90;999.90;;;16.90;89.80;;;;;;5086743;28;20044;-70
2023/05/27 05:05:15;;;;;;;1999.90;999.90;;;16.90;90.10;;;;;;5083867;28;20102;-69
2023/05/27 05:07:43;;;;;;;1999.90;999.90;;;16.80;90.00;;;;;;5089598;28;20032;-70
2023/05/27 05:10:13;;;;;;;1999.90;999.90;;;16.80;90.00;;;;;;5081847;28;20140;-69
2023/05/27 05:12:41;;;;;;;1999.90;999.90;;;16.70;90.00;;;;;;5085233;28;20111;-69
2023/05/27 05:15:08;;;;;;;1999.90;999.90;;;16.60;90.10;;;;;;5091074;28;20036;-69
2023/05/27 05:17:36;;;;;;;1999.90;999.90;;;16.50;90.00;;;;;;5093220;28;20512;-70
2023/05/27 05:20:16;;;;;;;1999.90;999.90;;;16.40;90.10;;;;;;5074365;28;20118;-70
2023/05/27 05:22:43;;;;;;;1999.90;999.90;;;16.40;90.30;;;;;;5100734;28;20030;-69
2023/05/27 05:25:10;;;;;;;1999.90;999.90;;;16.30;90.20;;;;;;5091806;28;20089;-71
2023/05/27 05:27:38;;;;;;;1999.90;999.90;;;16.30;90.10;;;;;;5090045;28;20023;-69
2023/05/27 05:30:06;;;;;;;1999.90;999.90;;;16.20;90.30;;;;;;5090627;28;20063;-69
2023/05/27 05:32:33;;;;;;;1999.90;999.90;;;16.20;90.40;;;;;;5097757;28;20028;-68
2023/05/27 05:35:01;;;;;;;1999.90;999.90;;;16.10;90.30;;;;;;5093553;28;20501;-72
2023/05/27 05:37:28;;;;;;;1999.90;999.90;;;16.10;90.30;;;;;;5092257;28;20055;-69
2023/05/27 05:39:56;;;;;;;1999.90;999.90;;;16.00;90.40;;;;;;5091864;28;20091;-69
2023/05/27 05:42:24;;;;;;;1999.90;999.90;;;15.80;90.50;;;;;;5092791;28;20115;-72
2023/05/27 05:44:53;;;;;;;1999.90;999.90;;;15.70;90.70;;;;;;5097245;28;20144;-71
2023/05/27 05:47:20;;;;;;;1999.90;999.90;;;15.60;90.90;;;;;;5100211;28;20623;-70
2023/05/27 05:49:49;;;;;;;1999.90;999.90;;;15.50;90.90;;;;;;5096712;28;20034;-70
2023/05/27 05:52:17;;;;;;;1999.90;999.90;;;15.40;91.00;;;;;;5096810;28;20028;-69
2023/05/27 05:54:44;;;;;;;1999.90;999.90;;;15.20;91.00;;;;;;5089703;28;20051;-70
2023/05/27 05:57:11;;;;;;;1999.90;999.90;;;15.10;91.10;;;;;;5103051;28;20050;-69
2023/05/27 05:59:39;;;;;;;1999.90;999.90;;;15.10;91.30;;;;;;5090708;28;20034;-69
2023/05/27 06:02:07;;;;;;;1999.90;999.90;;;15.00;91.30;;;;;;5098669;28;20123;-71
2023/05/27 06:04:34;;;;;;;1999.90;999.90;;;14.90;91.40;;;;;;5092731;28;20032;-72
2023/05/27 06:07:01;;;;;;;1999.90;999.90;;;14.80;91.40;;;;;;5098675;28;20042;-70
2023/05/27 06:09:29;;;;;;;1999.90;999.90;;;14.70;91.50;;;;;;5092038;28;20037;-69
2023/05/27 06:11:56;;;;;;;1999.90;999.90;;;14.70;91.70;;;;;;5101339;28;20031;-70
2023/05/27 06:14:24;;;;;;;1999.90;999.90;;;14.60;91.70;;;;;;5096375;28;20039;-70
2023/05/27 06:16:51;;;;;;;1999.90;999.90;;;14.70;91.80;;;;;;5096365;28;20490;-69
2023/05/27 06:19:18;;;;;;;1999.90;999.90;;;14.70;91.90;;;;;;5087607;28;20028;-68
2023/05/27 06:21:46;;;;;;;1999.90;999.90;;;14.70;92.00;;;;;;5084573;28;20064;-69
2023/05/27 06:24:16;;;;;;;1999.90;999.90;;;14.90;91.90;;;;;;5089301;28;20092;-70
2023/05/27 06:26:43;;;;;;;1999.90;999.90;;;15.00;91.80;;;;;;5084407;28;20027;-70
2023/05/27 06:29:11;;;;;;;1999.90;999.90;;;15.10;91.50;;;;;;5084354;28;20024;-69
2023/05/27 06:31:38;;;;;;;1999.90;999.90;;;15.10;91.60;;;;;;5091715;28;20027;-69
2023/05/27 06:34:06;;;;;;;1999.90;999.90;;;15.10;91.40;;;;;;5096190;28;20029;-69
2023/05/27 06:36:33;;;;;;;1999.90;999.90;;;15.00;91.50;;;;;;5099788;28;20358;-71
2023/05/27 06:39:00;;;;;;;1999.90;999.90;;;14.90;91.30;;;;;;5090509;28;20350;-71
2023/05/27 06:41:28;;;;;;;1999.90;999.90;;;14.80;91.40;;;;;;5078997;28;20028;-72
2023/05/27 06:43:58;;;;;;;1999.90;999.90;;;14.70;91.40;;;;;;5077595;28;20107;-71
2023/05/27 06:46:25;;;;;;;1999.90;999.90;;;14.50;91.70;;;;;;5079718;28;20020;-71
2023/05/27 06:48:53;;;;;;;1999.90;999.90;;;14.40;92.00;;;;;;5084067;28;20024;-70
2023/05/27 06:51:23;;;;;;;1999.90;999.90;;;14.20;92.30;;;;;;5081237;28;20074;-69
2023/05/27 06:53:50;;;;;;;1999.90;999.90;;;14.10;92.40;;;;;;5079080;28;20027;-69
2023/05/27 06:56:17;;;;;;;1999.90;999.90;;;13.90;92.60;;;;;;5086093;28;20073;-68
2023/05/27 06:58:46;;;;;;;1999.90;999.90;;;13.80;92.70;;;;;;5077576;28;20016;-69
2023/05/27 07:01:13;;;;;;;1999.90;999.90;;;13.60;93.00;;;;;;5096594;28;20492;-71
2023/05/27 07:03:42;;;;;;;1999.90;999.90;;;13.40;93.20;;;;;;5085826;28;20545;-69
2023/05/27 07:06:09;;;;;;;1999.90;999.90;;;13.30;93.40;;;;;;5085987;28;20032;-69
2023/05/27 07:08:36;;;;;;;1999.90;999.90;;;13.20;93.70;;;;;;5088314;28;20027;-69
2023/05/27 07:11:04;;;;;;;1999.90;999.90;;;13.10;94.00;;;;;;5092024;28;20039;-69
2023/05/27 07:13:31;;;;;;;1999.90;999.90;;;13.00;94.20;;;;;;5086001;28;20048;-69
2023/05/27 07:15:58;;;;;;;1999.90;999.90;;;12.90;94.40;;;;;;5084019;28;20081;-69
2023/05/27 07:18:26;;;;;;;1999.90;999.90;;;12.80;94.60;;;;;;5091843;28;20039;-71
2023/05/27 07:20:54;;;;;;;1999.90;999.90;;;12.70;94.90;;;;;;5085374;28;20051;-70
2023/05/27 07:23:21;;;;;;;1999.90;999.90;;;12.60;94.90;;;;;;5089678;28;20069;-70
2023/05/27 07:25:49;;;;;;;1999.90;999.90;;;12.40;95.10;;;;;;5087093;28;20095;-72
2023/05/27 07:28:16;;;;;;;1999.90;999.90;;;12.40;95.30;;;;;;5092429;28;20028;-70
2023/05/27 07:30:44;;;;;;;1999.90;999.90;;;12.30;95.60;;;;;;5087503;28;20036;-71
2023/05/27 07:33:16;;;;;;;1999.90;999.90;;;12.20;95.50;;;;;;5091562;28;20024;-71
2023/05/27 07:35:44;;;;;;;1999.90;999.90;;;12.10;95.80;;;;;;5087969;28;20027;-70
2023/05/27 07:38:11;;;;;;;1999.90;999.90;;;12.10;96.00;;;;;;5096459;28;20056;-72
2023/05/27 07:40:39;;;;;;;1999.90;999.90;;;12.00;96.10;;;;;;5081812;28;20099;-72
2023/05/27 07:43:06;;;;;;;1999.90;999.90;;;12.00;96.20;;;;;;5091036;28;20036;-69
2023/05/27 07:45:34;;;;;;;1999.90;999.90;;;11.80;96.20;;;;;;5078852;28;20961;-71
2023/05/27 07:48:01;;;;;;;1999.90;999.90;;;11.80;96.40;;;;;;5095112;28;20035;-71
2023/05/27 07:50:28;;;;;;;1999.90;999.90;;;11.70;96.50;;;;;;5087154;28;20051;-72
2023/05/27 07:52:56;;;;;;;1999.90;999.90;;;11.70;96.70;;;;;;5097095;28;20410;-71
2023/05/27 07:55:23;;;;;;;1999.90;999.90;;;11.60;97.00;;;;;;5091079;28;20015;-70
2023/05/27 07:57:51;;;;;;;1999.90;999.90;;;11.50;96.90;;;;;;5088375;28;20075;-72
2023/05/27 08:00:18;;;;;;;1999.90;999.90;;;11.50;97.10;;;;;;5087349;28;20236;-71
2023/05/27 08:02:45;;;;;;;1999.90;999.90;;;11.40;97.10;;;;;;5087736;28;20044;-72
2023/05/27 08:05:16;;;;;;;1999.90;999.90;;;11.30;97.40;;;;;;5087694;28;20567;-72
2023/05/27 08:07:45;;;;;;;1999.90;999.90;;;11.20;97.60;;;;;;5070687;28;20397;-70
2023/05/27 08:10:13;;;;;;;1999.90;999.90;;;11.20;97.50;;;;;;5079547;28;20509;-70
2023/05/27 08:12:40;;;;;;;1999.90;999.90;;;11.10;97.60;;;;;;5081548;28;20115;-71
2023/05/27 08:15:08;;;;;;;1999.90;999.90;;;11.00;97.60;;;;;;5089769;28;20034;-71
2023/05/27 08:17:35;;;;;;;1999.90;999.90;;;11.00;97.70;;;;;;5084260;28;20035;-72
2023/05/27 08:20:04;;;;;;;1999.90;999.90;;;10.90;97.70;;;;;;5092719;28;20028;-73
2023/05/27 08:22:31;;;;;;;1999.90;999.90;;;10.90;97.70;;;;;;5096997;28;20028;-74
2023/05/27 08:24:58;;;;;;;1999.90;999.90;;;10.90;97.80;;;;;;5090489;28;20111;-71
2023/05/27 08:27:49;;;;;;;1999.90;999.90;;;10.80;98.00;;;;;;5097662;28;20034;-70
2023/05/27 08:30:17;;;;;;;1999.90;999.90;;;10.80;97.80;;;;;;5069935;28;20036;-71
2023/05/27 08:32:44;;;;;;;1999.90;999.90;;;10.70;97.70;;;;;;5094024;28;20024;-72
2023/05/27 08:35:12;;;;;;;1999.90;999.90;;;10.70;97.70;;;;;;5090407;28;20024;-71
2023/05/27 08:37:43;;;;;;;1999.90;999.90;;;10.60;97.60;;;;;;5097958;28;20039;-71
2023/05/27 08:40:19;;;;;;;1999.90;999.90;;;10.60;97.60;;;;;;5093157;28;20478;-70
2023/05/27 08:42:49;;;;;;;1999.90;999.90;;;10.50;97.70;;;;;;5093573;28;20031;-70
2023/05/27 08:45:17;;;;;;;1999.90;999.90;;;10.50;97.80;;;;;;5100879;28;20272;-71
2023/05/27 08:47:45;;;;;;;1999.90;999.90;;;10.50;97.80;;;;;;5090615;28;20022;-70
2023/05/27 08:50:12;;;;;;;1999.90;999.90;;;10.50;97.80;;;;;;5088661;28;20062;-70
2023/05/27 08:52:52;;;;;;;1999.90;999.90;;;10.40;97.80;;;;;;5096129;28;20020;-70
2023/05/27 08:55:22;;;;;;;1999.90;999.90;;;10.30;97.90;;;;;;5091321;28;20084;-71
2023/05/27 08:57:57;;;;;;;1999.90;999.90;;;10.30;98.10;;;;;;5094169;28;20032;-71
2023/05/27 09:00:26;;;;;;;1999.90;999.90;;;10.30;98.30;;;;;;5087437;28;20051;-71
2023/05/27 09:02:59;;;;;;;1999.90;999.90;;;10.30;98.20;;;;;;5094796;28;20135;-70
2023/05/27 09:05:27;;;;;;;1999.90;999.90;;;10.30;98.20;;;;;;5087792;28;20505;-72
2023/05/27 09:07:55;;;;;;;1999.90;999.90;;;10.20;98.60;;;;;;5092986;28;20031;-71
2023/05/27 09:10:23;;;;;;;1999.90;999.90;;;10.20;98.80;;;;;;5088818;28;20060;-71
2023/05/27 09:12:51;;;;;;;1999.90;999.90;;;10.00;99.00;;;;;;5090166;28;20032;-71
2023/05/27 09:15:18;;;;;;;1999.90;999.90;;;10.00;99.10;;;;;;5092410;28;20028;-70
2023/05/27 09:17:47;;;;;;;1999.90;999.90;;;9.80;99.40;;;;;;5091683;28;20524;-70
2023/05/27 09:20:14;;;;;;;1999.90;999.90;;;9.80;99.70;;;;;;5090769;28;20433;-71
2023/05/27 09:22:42;;;;;;;1999.90;999.90;;;9.70;99.90;;;;;;5089091;28;20477;-71
2023/05/27 09:25:09;;;;;;;1999.90;999.90;;;9.60;99.90;;;;;;5089430;28;20036;-72
2023/05/27 09:27:37;;;;;;;1999.90;999.90;;;9.50;99.90;;;;;;5098126;28;20030;-70
2023/05/27 09:30:10;;;;;;;1999.90;999.90;;;9.40;99.90;;;;;;5089248;28;20067;-71
2023/05/27 09:32:37;;;;;;;1999.90;999.90;;;9.30;99.90;;;;;;5095890;28;20024;-72
2023/05/27 09:35:08;;;;;;;1999.90;999.90;;;9.20;99.90;;;;;;5093178;28;20381;-71
2023/05/27 09:37:35;;;;;;;1999.90;999.90;;;9.20;99.90;;;;;;5084783;28;20035;-70
2023/05/27 09:40:12;;;;;;;1999.90;999.90;;;9.10;99.90;;;;;;5088601;28;20036;-72
2023/05/27 09:42:46;;;;;;;1999.90;999.90;;;9.00;99.90;;;;;;5094178;28;20058;-73
2023/05/27 09:45:20;;;;;;;1999.90;999.90;;;8.90;99.90;;;;;;5094998;28;20020;-73
2023/05/27 09:47:52;;;;;;;1999.90;999.90;;;8.80;99.90;;;;;;5098222;28;20465;-70
2023/05/27 09:50:21;;;;;;;1999.90;999.90;;;8.70;99.90;;;;;;5076714;28;20082;-71
2023/05/27 09:52:49;;;;;;;1999.90;999.90;;;8.50;99.90;;;;;;5097382;28;20027;-71
2023/05/27 09:55:17;;;;;;;1999.90;999.90;;;8.50;99.90;;;;;;5092667;28;20027;-71
2023/05/27 09:57:45;;;;;;;1999.90;999.90;;;8.40;99.90;;;;;;5101241;28;20036;-72
2023/05/27 10:00:15;;;;;;;1999.90;999.90;;;8.40;99.90;;;;;;5090059;28;20024;-72
2023/05/27 10:02:51;;;;;;;1999.90;999.90;;;8.30;99.90;;;;;;5078256;28;20056;-72
2023/05/27 10:05:20;;;;;;;1999.90;999.90;;;8.20;99.90;;;;;;5093495;28;20107;-71
2023/05/27 10:07:48;;;;;;;1999.90;999.90;;;8.20;99.90;;;;;;5096690;28;20028;-72
2023/05/27 10:10:20;;;;;;;1999.90;999.90;;;8.10;99.90;;;;;;5094813;28;20446;-71
2023/05/27 10:12:51;;;;;;;1999.90;999.90;;;8.00;99.90;;;;;;5094154;28;20096;-71
2023/05/27 10:15:34;;;;;;;1999.90;999.90;;;7.90;99.90;;;;;;5094759;28;20035;-72
2023/05/27 10:18:10;;;;;;;1999.90;999.90;;;7.90;99.90;;;;;;5096372;28;20044;-72
2023/05/27 10:20:43;;;;;;;1999.90;999.90;;;7.90;99.90;;;;;;5085651;28;20036;-72
2023/05/27 10:23:26;;;;;;;1999.90;999.90;;;7.80;99.90;;;;;;5085902;28;20478;-73
2023/05/27 10:26:02;;;;;;;1999.90;999.90;;;7.80;99.90;;;;;;5088492;28;20115;-71
2023/05/27 10:28:33;;;;;;;1999.90;999.90;;;7.80;99.90;;;;;;5101578;28;20106;-70
2023/05/27 10:31:08;;;;;;;1999.90;999.90;;;7.80;99.90;;;;;;5098113;28;20032;-70
2023/05/27 10:33:45;;;;;;;1999.90;999.90;;;7.80;99.90;;;;;;5093143;28;20024;-71
2023/05/27 10:36:18;;;;;;;1999.90;999.90;;;7.70;99.90;;;;;;5094211;28;20024;-71
2023/05/27 10:38:56;;;;;;;1999.90;999.90;;;7.60;99.90;;;;;;5103602;28;20679;-72
2023/05/27 10:41:24;;;;;;;1999.90;999.90;;;7.50;99.90;;;;;;5087381;28;20047;-70
2023/05/27 10:43:58;;;;;;;1999.90;999.90;;;7.50;99.90;;;;;;5083347;28;20976;-70
2023/05/27 10:46:26;;;;;;;1999.90;999.90;;;7.50;99.90;;;;;;5090201;28;20073;-71
2023/05/27 10:48:54;;;;;;;1999.90;999.90;;;7.40;99.90;;;;;;5083604;28;20033;-71
2023/05/27 10:51:31;;;;;;;1999.90;999.90;;;7.30;99.90;;;;;;5091455;28;20039;-73
2023/05/27 10:54:04;;;;;;;1999.90;999.90;;;7.30;99.90;;;;;;5087352;28;20032;-72
2023/05/27 10:56:32;;;;;;;1999.90;999.90;;;7.20;99.90;;;;;;5104929;28;20042;-71
2023/05/27 10:59:03;;;;;;;1999.90;999.90;;;7.20;99.90;;;;;;5083775;28;20529;-71
2023/05/27 11:01:33;;;;;;;1999.90;999.90;;;7.20;99.90;;;;;;5088823;28;20448;-72
2023/05/27 11:04:00;;;;;;;1999.90;999.90;;;7.20;99.90;;;;;;5091035;28;20062;-73
2023/05/27 11:06:29;;;;;;;1999.90;999.90;;;7.20;99.90;;;;;;5094451;28;20386;-74
2023/05/27 11:08:56;;;;;;;1999.90;999.90;;;7.20;99.90;;;;;;5084483;28;20474;-71
2023/05/27 11:11:24;;;;;;;1999.90;999.90;;;7.10;99.90;;;;;;5092554;28;20106;-72
2023/05/27 11:13:52;;;;;;;1999.90;999.90;;;7.10;99.90;;;;;;5086649;28;20025;-71
2023/05/27 11:16:19;;;;;;;1999.90;999.90;;;7.10;99.90;;;;;;5090394;28;20039;-72
2023/05/27 11:18:48;;;;;;;1999.90;999.90;;;7.20;99.90;;;;;;5092351;28;20059;-71
2023/05/27 11:21:17;;;;;;;1999.90;999.90;;;7.10;99.90;;;;;;5101821;28;20131;-72
2023/05/27 11:23:48;;;;;;;1999.90;999.90;;;7.20;99.90;;;;;;5096197;28;20039;-72
2023/05/27 11:26:25;;;;;;;1999.90;999.90;;;7.20;99.90;;;;;;5100642;28;20047;-72
2023/05/27 11:28:56;;;;;;;1999.90;999.90;;;7.30;99.90;;;;;;5093610;28;20016;-72
2023/05/27 11:31:29;;;;;;;1999.90;999.90;;;7.30;99.90;;;;;;5094431;28;20481;-71
2023/05/27 11:33:57;;;;;;;1999.90;999.90;;;7.40;99.90;;;;;;5082390;28;20036;-70
2023/05/27 11:36:31;;;;;;;1999.90;999.90;;;7.40;99.90;;;;;;5094951;28;20035;-73
2023/05/27 11:39:00;;;;;;;1999.90;999.90;;;7.40;99.90;;;;;;5089478;28;20035;-74
2023/05/27 11:41:29;;;;;;;1999.90;999.90;;;7.40;99.90;;;;;;5092771;28;20035;-73
2023/05/27 11:44:15;;;;;;;1999.90;999.90;;;7.40;99.90;;;;;;5084389;28;20036;-72
2023/05/27 11:46:45;;;;;;;1999.90;999.90;;;7.40;99.90;;;;;;5101151;28;20393;-71
2023/05/27 11:49:17;;;;;;;1999.90;999.90;;;7.50;99.90;;;;;;5095840;28;20037;-72
2023/05/27 11:51:46;;;;;;;1999.90;999.90;;;7.40;99.90;;;;;;5098996;28;20038;-71
2023/05/27 11:54:25;;;;;;;1999.90;999.90;;;7.40;99.90;;;;;;5094812;28;20020;-69
2023/05/27 11:56:53;;;;;;;1999.90;999.90;;;7.40;99.90;;;;;;5091792;28;20043;-74
2023/05/27 11:59:24;;;;;;;1999.90;999.90;;;7.40;99.90;;;;;;5080184;28;20030;-70
2023/05/27 12:01:54;;;;;;;1999.90;999.90;;;7.40;99.90;;;;;;5089485;28;20048;-73
2023/05/27 12:04:21;;;;;;;1999.90;999.90;;;7.30;99.90;;;;;;5092663;28;20051;-72
2023/05/27 12:06:48;;;;;;;1999.90;999.90;;;7.20;99.90;;;;;;5096453;28;20574;-71
2023/05/27 12:09:16;;;;;;;1999.90;999.90;;;7.20;99.90;;;;;;5090255;28;20031;-70